sensor_id;sensor_type;location;lat;lon;timestamp;temperature;humidity
12166;DHT22;6146;48.128;11.476;2024-03-02T00:00:51;6.40;99.90
12166;DHT22;6146;48.128;11.476;2024-03-02T00:03:18;6.40;99.90
12166;DHT22;6146;48.128;11.476;2024-03-02T00:05:44;6.40;99.90
12166;DHT22;6146;48.128;11.476;2024-03-02T00:08:24;6.40;99.90
12166;DHT22;6146;48.128;11.476;2024-03-02T00:10:51;6.40;99.90
12166;DHT22;6146;48.128;11.476;2024-03-02T00:13:20;6.40;99.90
12166;DHT22;6146;48.128;11.476;2024-03-02T00:15:51;6.40;99.90
12166;DHT22;6146;48.128;11.476;2024-03-02T00:18:36;6.40;99.90
12166;DHT22;6146;48.128;11.476;2024-03-02T00:21:03;6.40;99.90
12166;DHT22;6146;48.128;11.476;2024-03-02T00:23:32;6.40;99.90
12166;DHT22;6146;48.128;11.476;2024-03-02T00:25:58;6.30;99.90
12166;DHT22;6146;48.128;11.476;2024-03-02T00:28:26;6.30;99.90
12166;DHT22;6146;48.128;11.476;2024-03-02T00:31:02;6.30;99.90
12166;DHT22;6146;48.128;11.476;2024-03-02T00:33:36;6.30;99.90
12166;DHT22;6146;48.128;11.476;2024-03-02T00:36:05;6.30;99.90
12166;DHT22;6146;48.128;11.476;2024-03-02T00:38:32;6.20;99.90
12166;DHT22;6146;48.128;11.476;2024-03-02T00:40:59;6.30;99.90
12166;DHT22;6146;48.128;11.476;2024-03-02T00:43:58;6.20;99.90
12166;DHT22;6146;48.128;11.476;2024-03-02T00:46:24;6.30;99.90
12166;DHT22;6146;48.128;11.476;2024-03-02T00:48:54;6.30;99.90
12166;DHT22;6146;48.128;11.476;2024-03-02T00:51:21;6.30;99.90
12166;DHT22;6146;48.128;11.476;2024-03-02T00:53:47;6.30;99.90
12166;DHT22;6146;48.128;11.476;2024-03-02T00:56:13;6.30;99.90
12166;DHT22;6146;48.128;11.476;2024-03-02T00:58:39;6.30;99.90
12166;DHT22;6146;48.128;11.476;2024-03-02T01:01:05;6.20;99.90
12166;DHT22;6146;48.128;11.476;2024-03-02T01:03:32;6.20;99.90
12166;DHT22;6146;48.128;11.476;2024-03-02T01:05:58;6.10;99.90
12166;DHT22;6146;48.128;11.476;2024-03-02T01:08:24;6.10;99.90
12166;DHT22;6146;48.128;11.476;2024-03-02T01:10:49;6.10;99.90
12166;DHT22;6146;48.128;11.476;2024-03-02T01:13:15;6.10;99.90
12166;DHT22;6146;48.128;11.476;2024-03-02T01:15:41;6.10;99.90
12166;DHT22;6146;48.128;11.476;2024-03-02T01:18:06;6.20;99.90
12166;DHT22;6146;48.128;11.476;2024-03-02T01:20:32;6.10;99.90
12166;DHT22;6146;48.128;11.476;2024-03-02T01:22:57;6.10;99.90
12166;DHT22;6146;48.128;11.476;2024-03-02T01:25:23;6.10;99.90
12166;DHT22;6146;48.128;11.476;2024-03-02T01:27:48;6.10;99.90
12166;DHT22;6146;48.128;11.476;2024-03-02T01:30:14;6.20;99.90
12166;DHT22;6146;48.128;11.476;2024-03-02T01:32:40;6.10;99.90
12166;DHT22;6146;48.128;11.476;2024-03-02T01:35:06;6.20;99.90
12166;DHT22;6146;48.128;11.476;2024-03-02T01:37:32;6.20;99.90
12166;DHT22;6146;48.128;11.476;2024-03-02T01:39:58;6.20;99.90
12166;DHT22;6146;48.128;11.476;2024-03-02T01:42:24;6.20;99.90
12166;DHT22;6146;48.128;11.476;2024-03-02T01:44:49;6.20;99.90
12166;DHT22;6146;48.128;11.476;2024-03-02T01:47:15;6.20;99.90
12166;DHT22;6146;48.128;11.476;2024-03-02T01:49:40;6.20;99.90
12166;DHT22;6146;48.128;11.476;2024-03-02T01:52:07;6.20;99.90
12166;DHT22;6146;48.128;11.476;2024-03-02T01:54:32;6.30;99.90
12166;DHT22;6146;48.128;11.476;2024-03-02T01:56:58;6.20;99.90
12166;DHT22;6146;48.128;11.476;2024-03-02T01:59:24;6.20;99.90
12166;DHT22;6146;48.128;11.476;2024-03-02T02:01:50;6.20;99.90
12166;DHT22;6146;48.128;11.476;2024-03-02T02:04:15;6.20;99.90
12166;DHT22;6146;48.128;11.476;2024-03-02T02:06:41;6.20;99.90
12166;DHT22;6146;48.128;11.476;2024-03-02T02:09:07;6.20;99.90
12166;DHT22;6146;48.128;11.476;2024-03-02T02:11:34;6.20;99.90
12166;DHT22;6146;48.128;11.476;2024-03-02T02:13:59;6.20;99.90
12166;DHT22;6146;48.128;11.476;2024-03-02T02:16:25;6.20;99.90
12166;DHT22;6146;48.128;11.476;2024-03-02T02:18:50;6.20;99.90
12166;DHT22;6146;48.128;11.476;2024-03-02T02:21:16;6.30;99.90
12166;DHT22;6146;48.128;11.476;2024-03-02T02:23:42;6.30;99.90
12166;DHT22;6146;48.128;11.476;2024-03-02T02:26:11;6.30;99.90
12166;DHT22;6146;48.128;11.476;2024-03-02T02:28:37;6.30;99.90
12166;DHT22;6146;48.128;11.476;2024-03-02T02:31:03;6.40;99.90
12166;DHT22;6146;48.128;11.476;2024-03-02T02:33:28;6.40;99.90
12166;DHT22;6146;48.128;11.476;2024-03-02T02:35:54;6.40;99.90
12166;DHT22;6146;48.128;11.476;2024-03-02T02:38:19;6.50;99.90
12166;DHT22;6146;48.128;11.476;2024-03-02T02:40:45;6.50;99.90
12166;DHT22;6146;48.128;11.476;2024-03-02T02:43:11;6.50;99.90
12166;DHT22;6146;48.128;11.476;2024-03-02T02:45:36;6.50;99.90
12166;DHT22;6146;48.128;11.476;2024-03-02T02:48:02;6.50;99.90
12166;DHT22;6146;48.128;11.476;2024-03-02T02:50:28;6.50;99.90
12166;DHT22;6146;48.128;11.476;2024-03-02T02:52:54;6.50;99.90
12166;DHT22;6146;48.128;11.476;2024-03-02T02:55:19;6.60;99.90
12166;DHT22;6146;48.128;11.476;2024-03-02T02:57:45;6.60;99.90
12166;DHT22;6146;48.128;11.476;2024-03-02T03:00:13;6.50;99.90
12166;DHT22;6146;48.128;11.476;2024-03-02T03:02:41;6.50;99.90
12166;DHT22;6146;48.128;11.476;2024-03-02T03:05:11;6.60;99.90
12166;DHT22;6146;48.128;11.476;2024-03-02T03:07:38;6.60;99.90
12166;DHT22;6146;48.128;11.476;2024-03-02T03:10:05;6.50;99.90
12166;DHT22;6146;48.128;11.476;2024-03-02T03:12:32;6.50;99.90
12166;DHT22;6146;48.128;11.476;2024-03-02T03:14:58;6.50;99.90
12166;DHT22;6146;48.128;11.476;2024-03-02T03:17:23;6.50;99.90
12166;DHT22;6146;48.128;11.476;2024-03-02T03:19:50;6.50;99.90
12166;DHT22;6146;48.128;11.476;2024-03-02T03:22:16;6.40;99.90
12166;DHT22;6146;48.128;11.476;2024-03-02T03:24:42;6.40;99.90
12166;DHT22;6146;48.128;11.476;2024-03-02T03:27:07;6.40;99.90
12166;DHT22;6146;48.128;11.476;2024-03-02T03:29:33;6.40;99.90
12166;DHT22;6146;48.128;11.476;2024-03-02T03:31:58;6.40;99.90
12166;DHT22;6146;48.128;11.476;2024-03-02T03:34:24;6.40;99.90
12166;DHT22;6146;48.128;11.476;2024-03-02T03:36:49;6.40;99.90
12166;DHT22;6146;48.128;11.476;2024-03-02T03:39:15;6.40;99.90
12166;DHT22;6146;48.128;11.476;2024-03-02T03:41:41;6.40;99.90
12166;DHT22;6146;48.128;11.476;2024-03-02T03:44:06;6.40;99.90
12166;DHT22;6146;48.128;11.476;2024-03-02T03:46:32;6.30;99.90
12166;DHT22;6146;48.128;11.476;2024-03-02T03:48:57;6.30;99.90
12166;DHT22;6146;48.128;11.476;2024-03-02T03:51:23;6.20;99.90
12166;DHT22;6146;48.128;11.476;2024-03-02T03:53:49;6.20;99.90
12166;DHT22;6146;48.128;11.476;2024-03-02T03:56:14;6.20;99.90
12166;DHT22;6146;48.128;11.476;2024-03-02T03:58:40;6.20;99.90
12166;DHT22;6146;48.128;11.476;2024-03-02T04:01:05;6.20;99.90
12166;DHT22;6146;48.128;11.476;2024-03-02T04:03:31;6.20;99.90
12166;DHT22;6146;48.128;11.476;2024-03-02T04:05:56;6.20;99.90
12166;DHT22;6146;48.128;11.476;2024-03-02T04:08:22;6.30;99.90
12166;DHT22;6146;48.128;11.476;2024-03-02T04:10:48;6.30;99.90
12166;DHT22;6146;48.128;11.476;2024-03-02T04:13:14;6.20;99.90
12166;DHT22;6146;48.128;11.476;2024-03-02T04:15:39;6.20;99.90
12166;DHT22;6146;48.128;11.476;2024-03-02T04:18:06;6.20;99.90
12166;DHT22;6146;48.128;11.476;2024-03-02T04:20:32;6.30;99.90
12166;DHT22;6146;48.128;11.476;2024-03-02T04:22:57;6.40;99.90
12166;DHT22;6146;48.128;11.476;2024-03-02T04:25:23;6.20;99.90
12166;DHT22;6146;48.128;11.476;2024-03-02T04:27:48;6.30;99.90
12166;DHT22;6146;48.128;11.476;2024-03-02T04:30:14;6.40;99.90
12166;DHT22;6146;48.128;11.476;2024-03-02T04:32:40;6.40;99.90
12166;DHT22;6146;48.128;11.476;2024-03-02T04:35:06;6.50;99.90
12166;DHT22;6146;48.128;11.476;2024-03-02T04:37:35;6.40;99.90
12166;DHT22;6146;48.128;11.476;2024-03-02T04:40:01;6.40;99.90
12166;DHT22;6146;48.128;11.476;2024-03-02T04:42:26;6.50;99.90
12166;DHT22;6146;48.128;11.476;2024-03-02T04:44:52;7.00;99.90
12166;DHT22;6146;48.128;11.476;2024-03-02T04:47:17;6.50;99.90
12166;DHT22;6146;48.128;11.476;2024-03-02T04:49:43;6.50;99.90
12166;DHT22;6146;48.128;11.476;2024-03-02T04:52:09;6.50;99.90
12166;DHT22;6146;48.128;11.476;2024-03-02T04:54:34;6.50;99.90
12166;DHT22;6146;48.128;11.476;2024-03-02T04:57:20;6.50;99.90
12166;DHT22;6146;48.128;11.476;2024-03-02T04:59:45;6.50;99.90
12166;DHT22;6146;48.128;11.476;2024-03-02T05:02:11;6.40;99.90
12166;DHT22;6146;48.128;11.476;2024-03-02T05:04:38;6.40;99.90
12166;DHT22;6146;48.128;11.476;2024-03-02T05:07:04;6.40;99.90
12166;DHT22;6146;48.128;11.476;2024-03-02T05:09:30;6.40;99.90
12166;DHT22;6146;48.128;11.476;2024-03-02T05:11:55;6.40;99.90
12166;DHT22;6146;48.128;11.476;2024-03-02T05:14:30;6.30;99.90
12166;DHT22;6146;48.128;11.476;2024-03-02T05:16:55;6.40;99.90
12166;DHT22;6146;48.128;11.476;2024-03-02T05:19:21;6.40;99.90
12166;DHT22;6146;48.128;11.476;2024-03-02T05:21:46;6.40;99.90
12166;DHT22;6146;48.128;11.476;2024-03-02T05:24:12;6.40;99.90
12166;DHT22;6146;48.128;11.476;2024-03-02T05:26:37;6.40;99.90
12166;DHT22;6146;48.128;11.476;2024-03-02T05:29:03;6.40;99.90
12166;DHT22;6146;48.128;11.476;2024-03-02T05:31:29;6.50;99.90
12166;DHT22;6146;48.128;11.476;2024-03-02T05:33:55;6.50;99.90
12166;DHT22;6146;48.128;11.476;2024-03-02T05:36:20;6.50;99.90
12166;DHT22;6146;48.128;11.476;2024-03-02T05:38:46;6.50;99.90
12166;DHT22;6146;48.128;11.476;2024-03-02T05:41:11;6.40;99.90
12166;DHT22;6146;48.128;11.476;2024-03-02T05:43:37;6.40;99.90
12166;DHT22;6146;48.128;11.476;2024-03-02T05:46:03;6.40;99.90
12166;DHT22;6146;48.128;11.476;2024-03-02T05:48:28;6.40;99.90
12166;DHT22;6146;48.128;11.476;2024-03-02T05:50:54;6.50;99.90
12166;DHT22;6146;48.128;11.476;2024-03-02T05:53:19;6.50;99.90
12166;DHT22;6146;48.128;11.476;2024-03-02T05:55:45;6.40;99.90
12166;DHT22;6146;48.128;11.476;2024-03-02T05:58:11;6.40;99.90
12166;DHT22;6146;48.128;11.476;2024-03-02T06:00:55;6.30;99.90
12166;DHT22;6146;48.128;11.476;2024-03-02T06:03:20;6.30;99.90
12166;DHT22;6146;48.128;11.476;2024-03-02T06:05:46;6.40;99.90
12166;DHT22;6146;48.128;11.476;2024-03-02T06:08:14;6.50;99.90
12166;DHT22;6146;48.128;11.476;2024-03-02T06:10:40;6.30;99.90
12166;DHT22;6146;48.128;11.476;2024-03-02T06:13:05;6.40;99.90
12166;DHT22;6146;48.128;11.476;2024-03-02T06:15:31;6.40;99.90
12166;DHT22;6146;48.128;11.476;2024-03-02T06:17:56;6.40;99.90
12166;DHT22;6146;48.128;11.476;2024-03-02T06:20:22;6.40;99.90
12166;DHT22;6146;48.128;11.476;2024-03-02T06:22:47;6.40;99.90
12166;DHT22;6146;48.128;11.476;2024-03-02T06:25:13;6.40;99.90
12166;DHT22;6146;48.128;11.476;2024-03-02T06:27:39;6.40;99.90
12166;DHT22;6146;48.128;11.476;2024-03-02T06:30:05;6.40;99.90
12166;DHT22;6146;48.128;11.476;2024-03-02T06:32:30;6.40;99.90
12166;DHT22;6146;48.128;11.476;2024-03-02T06:34:56;6.40;99.90
12166;DHT22;6146;48.128;11.476;2024-03-02T06:37:22;6.50;99.90
12166;DHT22;6146;48.128;11.476;2024-03-02T06:39:47;6.60;99.90
12166;DHT22;6146;48.128;11.476;2024-03-02T06:42:13;6.50;99.90
12166;DHT22;6146;48.128;11.476;2024-03-02T06:44:38;6.50;99.90
12166;DHT22;6146;48.128;11.476;2024-03-02T06:47:04;6.60;99.90
12166;DHT22;6146;48.128;11.476;2024-03-02T06:49:30;6.60;99.90
12166;DHT22;6146;48.128;11.476;2024-03-02T06:51:55;6.60;99.90
12166;DHT22;6146;48.128;11.476;2024-03-02T06:54:21;6.60;99.90
12166;DHT22;6146;48.128;11.476;2024-03-02T06:56:46;6.60;99.90
12166;DHT22;6146;48.128;11.476;2024-03-02T06:59:12;6.60;99.90
12166;DHT22;6146;48.128;11.476;2024-03-02T07:01:37;6.70;99.90
12166;DHT22;6146;48.128;11.476;2024-03-02T07:04:03;6.80;99.90
12166;DHT22;6146;48.128;11.476;2024-03-02T07:06:32;6.80;99.90
12166;DHT22;6146;48.128;11.476;2024-03-02T07:08:57;6.90;99.90
12166;DHT22;6146;48.128;11.476;2024-03-02T07:11:23;6.90;99.90
12166;DHT22;6146;48.128;11.476;2024-03-02T07:13:48;7.00;99.90
12166;DHT22;6146;48.128;11.476;2024-03-02T07:16:14;7.20;99.90
12166;DHT22;6146;48.128;11.476;2024-03-02T07:18:58;7.30;99.90
12166;DHT22;6146;48.128;11.476;2024-03-02T07:21:24;7.60;99.90
12166;DHT22;6146;48.128;11.476;2024-03-02T07:23:50;8.00;99.90
12166;DHT22;6146;48.128;11.476;2024-03-02T07:26:16;8.40;99.90
12166;DHT22;6146;48.128;11.476;2024-03-02T07:28:44;8.90;99.90
12166;DHT22;6146;48.128;11.476;2024-03-02T07:31:10;9.50;99.90
12166;DHT22;6146;48.128;11.476;2024-03-02T07:33:36;9.90;99.90
12166;DHT22;6146;48.128;11.476;2024-03-02T07:36:02;10.40;99.90
12166;DHT22;6146;48.128;11.476;2024-03-02T07:38:28;11.10;99.90
12166;DHT22;6146;48.128;11.476;2024-03-02T07:40:54;11.90;99.90
12166;DHT22;6146;48.128;11.476;2024-03-02T07:43:20;12.90;99.90
12166;DHT22;6146;48.128;11.476;2024-03-02T07:45:47;14.00;99.90
12166;DHT22;6146;48.128;11.476;2024-03-02T07:48:12;14.80;99.90
12166;DHT22;6146;48.128;11.476;2024-03-02T07:50:38;15.70;99.90
12166;DHT22;6146;48.128;11.476;2024-03-02T07:53:04;15.90;99.90
12166;DHT22;6146;48.128;11.476;2024-03-02T07:55:30;16.10;99.90
12166;DHT22;6146;48.128;11.476;2024-03-02T07:57:56;16.10;99.90
12166;DHT22;6146;48.128;11.476;2024-03-02T08:00:23;15.90;99.90
12166;DHT22;6146;48.128;11.476;2024-03-02T08:02:50;16.50;99.90
12166;DHT22;6146;48.128;11.476;2024-03-02T08:05:16;17.00;99.90
12166;DHT22;6146;48.128;11.476;2024-03-02T08:07:44;17.90;99.90
12166;DHT22;6146;48.128;11.476;2024-03-02T08:10:09;18.90;99.90
12166;DHT22;6146;48.128;11.476;2024-03-02T08:12:35;19.80;99.90
12166;DHT22;6146;48.128;11.476;2024-03-02T08:15:01;20.80;98.30
12166;DHT22;6146;48.128;11.476;2024-03-02T08:17:26;21.80;95.00
12166;DHT22;6146;48.128;11.476;2024-03-02T08:19:52;22.60;92.20
12166;DHT22;6146;48.128;11.476;2024-03-02T08:22:18;23.70;88.50
12166;DHT22;6146;48.128;11.476;2024-03-02T08:24:44;24.00;84.90
12166;DHT22;6146;48.128;11.476;2024-03-02T08:27:09;24.80;80.30
12166;DHT22;6146;48.128;11.476;2024-03-02T08:29:35;24.50;76.30
12166;DHT22;6146;48.128;11.476;2024-03-02T08:32:01;24.80;74.90
12166;DHT22;6146;48.128;11.476;2024-03-02T08:34:26;24.40;72.10
12166;DHT22;6146;48.128;11.476;2024-03-02T08:36:52;23.50;75.90
12166;DHT22;6146;48.128;11.476;2024-03-02T08:39:17;23.20;75.70
12166;DHT22;6146;48.128;11.476;2024-03-02T08:41:45;23.30;77.70
12166;DHT22;6146;48.128;11.476;2024-03-02T08:44:11;23.80;74.50
12166;DHT22;6146;48.128;11.476;2024-03-02T08:46:38;24.20;73.20
12166;DHT22;6146;48.128;11.476;2024-03-02T08:49:04;24.30;73.00
12166;DHT22;6146;48.128;11.476;2024-03-02T08:51:30;24.60;71.20
12166;DHT22;6146;48.128;11.476;2024-03-02T08:53:56;25.00;70.60
12166;DHT22;6146;48.128;11.476;2024-03-02T08:56:21;24.90;70.40
12166;DHT22;6146;48.128;11.476;2024-03-02T08:58:49;26.00;68.30
12166;DHT22;6146;48.128;11.476;2024-03-02T09:01:15;26.20;65.80
12166;DHT22;6146;48.128;11.476;2024-03-02T09:03:42;27.10;60.00
12166;DHT22;6146;48.128;11.476;2024-03-02T09:06:10;26.20;63.90
12166;DHT22;6146;48.128;11.476;2024-03-02T09:08:36;26.20;62.90
12166;DHT22;6146;48.128;11.476;2024-03-02T09:11:03;26.20;63.90
12166;DHT22;6146;48.128;11.476;2024-03-02T09:13:29;27.00;59.80
12166;DHT22;6146;48.128;11.476;2024-03-02T09:15:54;27.30;58.20
12166;DHT22;6146;48.128;11.476;2024-03-02T09:18:20;27.70;57.80
12166;DHT22;6146;48.128;11.476;2024-03-02T09:20:45;27.00;56.70
12166;DHT22;6146;48.128;11.476;2024-03-02T09:23:11;26.10;57.80
12166;DHT22;6146;48.128;11.476;2024-03-02T09:25:37;26.50;60.30
12166;DHT22;6146;48.128;11.476;2024-03-02T09:28:03;26.50;56.40
12166;DHT22;6146;48.128;11.476;2024-03-02T09:30:28;26.60;59.10
12166;DHT22;6146;48.128;11.476;2024-03-02T09:32:54;26.10;57.50
12166;DHT22;6146;48.128;11.476;2024-03-02T09:35:20;24.20;58.30
12166;DHT22;6146;48.128;11.476;2024-03-02T09:37:45;20.50;69.20
12166;DHT22;6146;48.128;11.476;2024-03-02T09:40:12;18.90;75.40
12166;DHT22;6146;48.128;11.476;2024-03-02T09:42:38;18.10;80.20
12166;DHT22;6146;48.128;11.476;2024-03-02T09:45:05;19.20;81.20
12166;DHT22;6146;48.128;11.476;2024-03-02T09:47:31;20.80;75.10
12166;DHT22;6146;48.128;11.476;2024-03-02T09:49:57;21.30;71.80
12166;DHT22;6146;48.128;11.476;2024-03-02T09:52:23;21.00;74.90
12166;DHT22;6146;48.128;11.476;2024-03-02T09:54:49;20.30;76.60
12166;DHT22;6146;48.128;11.476;2024-03-02T09:57:15;19.50;80.60
12166;DHT22;6146;48.128;11.476;2024-03-02T09:59:40;18.40;83.40
12166;DHT22;6146;48.128;11.476;2024-03-02T10:02:06;17.00;88.70
12166;DHT22;6146;48.128;11.476;2024-03-02T10:04:33;16.80;90.70
12166;DHT22;6146;48.128;11.476;2024-03-02T10:07:10;17.50;90.40
12166;DHT22;6146;48.128;11.476;2024-03-02T10:09:37;18.00;88.80
12166;DHT22;6146;48.128;11.476;2024-03-02T10:12:07;18.00;88.90
12166;DHT22;6146;48.128;11.476;2024-03-02T10:14:33;18.60;86.90
12166;DHT22;6146;48.128;11.476;2024-03-02T10:17:06;17.90;86.60
12166;DHT22;6146;48.128;11.476;2024-03-02T10:19:32;16.00;91.50
12166;DHT22;6146;48.128;11.476;2024-03-02T10:21:59;16.20;93.00
12166;DHT22;6146;48.128;11.476;2024-03-02T10:24:25;16.80;91.10
12166;DHT22;6146;48.128;11.476;2024-03-02T10:26:51;16.10;93.30
12166;DHT22;6146;48.128;11.476;2024-03-02T10:29:18;17.00;91.30
12166;DHT22;6146;48.128;11.476;2024-03-02T10:31:45;17.20;90.50
12166;DHT22;6146;48.128;11.476;2024-03-02T10:34:13;17.60;89.50
12166;DHT22;6146;48.128;11.476;2024-03-02T10:36:43;17.50;89.30
12166;DHT22;6146;48.128;11.476;2024-03-02T10:39:10;17.80;88.10
12166;DHT22;6146;48.128;11.476;2024-03-02T10:41:38;17.20;91.10
12166;DHT22;6146;48.128;11.476;2024-03-02T10:44:05;18.30;87.60
12166;DHT22;6146;48.128;11.476;2024-03-02T10:46:32;18.70;87.30
12166;DHT22;6146;48.128;11.476;2024-03-02T10:48:59;19.90;86.30
12166;DHT22;6146;48.128;11.476;2024-03-02T10:51:29;21.30;79.20
12166;DHT22;6146;48.128;11.476;2024-03-02T10:53:58;21.40;76.10
12166;DHT22;6146;48.128;11.476;2024-03-02T10:56:38;21.00;78.00
12166;DHT22;6146;48.128;11.476;2024-03-02T11:01:57;20.20;77.40
12166;DHT22;6146;48.128;11.476;2024-03-02T11:04:28;18.60;83.00
12166;DHT22;6146;48.128;11.476;2024-03-02T11:07:06;20.70;81.00
12166;DHT22;6146;48.128;11.476;2024-03-02T11:09:34;21.40;77.80
12166;DHT22;6146;48.128;11.476;2024-03-02T11:14:52;23.10;69.90
12166;DHT22;6146;48.128;11.476;2024-03-02T11:17:21;22.70;71.00
12166;DHT22;6146;48.128;11.476;2024-03-02T11:19:47;22.70;72.60
12166;DHT22;6146;48.128;11.476;2024-03-02T11:22:13;23.20;67.70
12166;DHT22;6146;48.128;11.476;2024-03-02T11:24:48;23.70;67.90
12166;DHT22;6146;48.128;11.476;2024-03-02T11:27:13;23.40;65.90
12166;DHT22;6146;48.128;11.476;2024-03-02T11:32:14;23.00;66.10
12166;DHT22;6146;48.128;11.476;2024-03-02T11:34:42;23.00;66.80
12166;DHT22;6146;48.128;11.476;2024-03-02T11:37:12;23.30;65.90
12166;DHT22;6146;48.128;11.476;2024-03-02T11:39:41;22.90;66.30
12166;DHT22;6146;48.128;11.476;2024-03-02T11:42:07;22.60;68.40
12166;DHT22;6146;48.128;11.476;2024-03-02T11:44:36;22.60;67.30
12166;DHT22;6146;48.128;11.476;2024-03-02T11:47:06;22.20;68.90
12166;DHT22;6146;48.128;11.476;2024-03-02T11:49:44;20.70;72.90
12166;DHT22;6146;48.128;11.476;2024-03-02T11:52:13;20.90;75.50
12166;DHT22;6146;48.128;11.476;2024-03-02T11:54:42;20.90;73.80
12166;DHT22;6146;48.128;11.476;2024-03-02T11:57:20;21.50;72.80
12166;DHT22;6146;48.128;11.476;2024-03-02T11:59:48;21.20;72.20
12166;DHT22;6146;48.128;11.476;2024-03-02T12:02:19;20.40;75.20
12166;DHT22;6146;48.128;11.476;2024-03-02T12:04:46;20.20;79.10
12166;DHT22;6146;48.128;11.476;2024-03-02T12:07:21;21.10;75.40
12166;DHT22;6146;48.128;11.476;2024-03-02T12:09:48;20.40;77.40
12166;DHT22;6146;48.128;11.476;2024-03-02T12:12:13;20.00;78.30
12166;DHT22;6146;48.128;11.476;2024-03-02T12:14:50;20.70;76.40
12166;DHT22;6146;48.128;11.476;2024-03-02T12:17:16;21.10;74.00
12166;DHT22;6146;48.128;11.476;2024-03-02T12:19:41;21.70;72.20
12166;DHT22;6146;48.128;11.476;2024-03-02T12:22:07;21.10;74.60
12166;DHT22;6146;48.128;11.476;2024-03-02T12:24:33;21.60;74.20
12166;DHT22;6146;48.128;11.476;2024-03-02T12:26:58;22.80;71.30
12166;DHT22;6146;48.128;11.476;2024-03-02T12:29:24;23.50;66.60
12166;DHT22;6146;48.128;11.476;2024-03-02T12:31:51;23.00;71.30
12166;DHT22;6146;48.128;11.476;2024-03-02T12:34:21;23.60;66.40
12166;DHT22;6146;48.128;11.476;2024-03-02T12:36:47;23.50;64.80
12166;DHT22;6146;48.128;11.476;2024-03-02T12:39:24;22.80;68.30
12166;DHT22;6146;48.128;11.476;2024-03-02T12:41:50;21.40;74.10
12166;DHT22;6146;48.128;11.476;2024-03-02T12:44:17;21.40;73.80
12166;DHT22;6146;48.128;11.476;2024-03-02T12:46:43;22.50;71.00
12166;DHT22;6146;48.128;11.476;2024-03-02T12:49:10;22.70;68.40
12166;DHT22;6146;48.128;11.476;2024-03-02T12:51:36;21.90;69.00
12166;DHT22;6146;48.128;11.476;2024-03-02T12:54:02;20.90;72.60
12166;DHT22;6146;48.128;11.476;2024-03-02T12:56:29;20.10;74.90
12166;DHT22;6146;48.128;11.476;2024-03-02T12:58:55;18.80;80.50
12166;DHT22;6146;48.128;11.476;2024-03-02T13:01:21;18.60;82.00
12166;DHT22;6146;48.128;11.476;2024-03-02T13:03:49;18.90;84.00
12166;DHT22;6146;48.128;11.476;2024-03-02T13:06:20;19.20;82.20
12166;DHT22;6146;48.128;11.476;2024-03-02T13:08:46;19.80;82.30
12166;DHT22;6146;48.128;11.476;2024-03-02T13:11:12;20.20;82.10
12166;DHT22;6146;48.128;11.476;2024-03-02T13:13:39;20.60;80.00
12166;DHT22;6146;48.128;11.476;2024-03-02T13:16:08;20.70;79.50
12166;DHT22;6146;48.128;11.476;2024-03-02T13:18:37;19.20;83.80
12166;DHT22;6146;48.128;11.476;2024-03-02T13:21:03;18.20;88.10
12166;DHT22;6146;48.128;11.476;2024-03-02T13:23:30;18.00;90.50
12166;DHT22;6146;48.128;11.476;2024-03-02T13:25:58;18.50;89.50
12166;DHT22;6146;48.128;11.476;2024-03-02T13:28:27;18.90;87.70
12166;DHT22;6146;48.128;11.476;2024-03-02T13:30:53;19.10;87.30
12166;DHT22;6146;48.128;11.476;2024-03-02T13:33:18;19.80;83.90
12166;DHT22;6146;48.128;11.476;2024-03-02T13:35:50;18.60;87.60
12166;DHT22;6146;48.128;11.476;2024-03-02T13:38:17;17.90;90.40
12166;DHT22;6146;48.128;11.476;2024-03-02T13:40:43;17.40;91.50
12166;DHT22;6146;48.128;11.476;2024-03-02T13:43:09;17.40;91.80
12166;DHT22;6146;48.128;11.476;2024-03-02T13:45:34;17.40;91.80
12166;DHT22;6146;48.128;11.476;2024-03-02T13:48:00;17.90;91.50
12166;DHT22;6146;48.128;11.476;2024-03-02T13:50:27;17.80;90.90
12166;DHT22;6146;48.128;11.476;2024-03-02T13:52:55;16.80;92.70
12166;DHT22;6146;48.128;11.476;2024-03-02T13:55:20;16.20;94.40
12166;DHT22;6146;48.128;11.476;2024-03-02T13:57:46;15.40;96.10
12166;DHT22;6146;48.128;11.476;2024-03-02T14:00:13;14.80;97.80
12166;DHT22;6146;48.128;11.476;2024-03-02T14:02:39;14.80;98.90
12166;DHT22;6146;48.128;11.476;2024-03-02T14:05:05;14.70;99.20
12166;DHT22;6146;48.128;11.476;2024-03-02T14:07:31;14.70;99.90
12166;DHT22;6146;48.128;11.476;2024-03-02T14:09:56;14.60;99.90
12166;DHT22;6146;48.128;11.476;2024-03-02T14:12:23;14.50;99.90
12166;DHT22;6146;48.128;11.476;2024-03-02T14:14:48;14.30;99.90
12166;DHT22;6146;48.128;11.476;2024-03-02T14:17:16;14.20;99.90
12166;DHT22;6146;48.128;11.476;2024-03-02T14:19:42;14.00;99.90
12166;DHT22;6146;48.128;11.476;2024-03-02T14:22:07;14.00;99.90
12166;DHT22;6146;48.128;11.476;2024-03-02T14:24:33;13.80;99.90
12166;DHT22;6146;48.128;11.476;2024-03-02T14:26:58;13.80;99.90
12166;DHT22;6146;48.128;11.476;2024-03-02T14:29:27;13.50;99.90
12166;DHT22;6146;48.128;11.476;2024-03-02T14:31:52;13.60;99.90
12166;DHT22;6146;48.128;11.476;2024-03-02T14:34:18;13.60;99.90
12166;DHT22;6146;48.128;11.476;2024-03-02T14:36:43;13.60;99.90
12166;DHT22;6146;48.128;11.476;2024-03-02T14:39:10;13.70;99.90
12166;DHT22;6146;48.128;11.476;2024-03-02T14:41:36;13.90;99.90
12166;DHT22;6146;48.128;11.476;2024-03-02T14:44:02;14.00;99.90
12166;DHT22;6146;48.128;11.476;2024-03-02T14:46:28;14.00;99.90
12166;DHT22;6146;48.128;11.476;2024-03-02T14:48:54;13.90;99.90
12166;DHT22;6146;48.128;11.476;2024-03-02T14:51:20;13.90;99.90
12166;DHT22;6146;48.128;11.476;2024-03-02T14:53:45;13.80;99.90
12166;DHT22;6146;48.128;11.476;2024-03-02T14:56:11;13.80;99.90
12166;DHT22;6146;48.128;11.476;2024-03-02T14:58:38;13.90;99.90
12166;DHT22;6146;48.128;11.476;2024-03-02T15:01:04;13.90;99.90
12166;DHT22;6146;48.128;11.476;2024-03-02T15:03:31;13.90;99.90
12166;DHT22;6146;48.128;11.476;2024-03-02T15:05:57;13.80;99.90
12166;DHT22;6146;48.128;11.476;2024-03-02T15:08:22;13.60;99.90
12166;DHT22;6146;48.128;11.476;2024-03-02T15:10:48;13.60;99.90
12166;DHT22;6146;48.128;11.476;2024-03-02T15:13:14;13.50;99.90
12166;DHT22;6146;48.128;11.476;2024-03-02T15:15:39;13.50;99.90
12166;DHT22;6146;48.128;11.476;2024-03-02T15:18:05;13.50;99.90
12166;DHT22;6146;48.128;11.476;2024-03-02T15:20:31;13.30;99.90
12166;DHT22;6146;48.128;11.476;2024-03-02T15:22:56;13.30;99.90
12166;DHT22;6146;48.128;11.476;2024-03-02T15:25:22;13.30;99.90
12166;DHT22;6146;48.128;11.476;2024-03-02T15:27:47;13.30;99.90
12166;DHT22;6146;48.128;11.476;2024-03-02T15:30:13;13.20;99.90
12166;DHT22;6146;48.128;11.476;2024-03-02T15:32:39;13.10;99.90
12166;DHT22;6146;48.128;11.476;2024-03-02T15:35:05;13.20;99.90
12166;DHT22;6146;48.128;11.476;2024-03-02T15:37:31;13.20;99.90
12166;DHT22;6146;48.128;11.476;2024-03-02T15:39:57;13.30;99.90
12166;DHT22;6146;48.128;11.476;2024-03-02T15:42:22;13.30;99.90